Time;durP1;ratioP1;P1;durP2;ratioP2;P2;SDS_P1;SDS_P2;PMS_P1;PMS_P2;Temp;Humidity;BMP_temperature;BMP_pressure;BME280_temperature;BME280_humidity;BME280_pressure;Samples;Min_cycle;Max_cycle;Signal;HPM_P1;HPM_P2
2021/06/11 00:00:11;;;;;;;13.05;9.57;;;;;;;;;;1492858;39;20028;-62
2021/06/11 00:01:12;;;;;;;13.48;10.00;;;;;;;;;;1493019;39;20075;-63
2021/06/11 00:02:14;;;;;;;21.27;10.88;;;;;;;;;;1492813;39;20280;-61
2021/06/11 00:03:15;;;;;;;16.67;11.00;;;;;;;;;;1493070;39;20040;-61
2021/06/11 00:04:16;;;;;;;13.60;9.57;;;;;;;;;;1492976;39;20028;-62
2021/06/11 00:05:17;;;;;;;13.48;9.82;;;;;;;;;;1492871;39;20034;-63
2021/06/11 00:06:18;;;;;;;16.80;10.70;;;;;;;;;;1493031;39;20027;-62
2021/06/11 00:07:21;;;;;;;16.20;10.52;;;;;;;;;;1492847;39;20024;-62
2021/06/11 00:08:22;;;;;;;17.15;10.18;;;;;;;;;;1492901;39;20097;-61
2021/06/11 00:09:23;;;;;;;16.45;11.07;;;;;;;;;;1493045;39;20030;-61
2021/06/11 00:10:24;;;;;;;14.30;10.18;;;;;;;;;;1492995;39;20047;-61
2021/06/11 00:11:25;;;;;;;14.80;9.93;;;;;;;;;;1492878;39;20035;-61
2021/06/11 00:12:26;;;;;;;15.48;10.23;;;;;;;;;;1493023;39;20024;-62
2021/06/11 00:13:27;;;;;;;13.85;10.63;;;;;;;;;;1493025;39;20031;-61
2021/06/11 00:14:29;;;;;;;16.40;10.38;;;;;;;;;;1492879;39;20054;-61
2021/06/11 00:15:30;;;;;;;15.40;10.18;;;;;;;;;;1492356;39;20032;-61
2021/06/11 00:16:32;;;;;;;14.15;9.68;;;;;;;;;;1492549;39;20108;-61
2021/06/11 00:17:32;;;;;;;13.07;9.25;;;;;;;;;;1492897;39;20384;-62
2021/06/11 00:18:34;;;;;;;15.15;9.98;;;;;;;;;;1492815;39;20044;-62
2021/06/11 00:19:35;;;;;;;18.55;11.23;;;;;;;;;;1492804;39;20108;-61
2021/06/11 00:20:36;;;;;;;17.75;10.80;;;;;;;;;;1492843;39;20383;-62
2021/06/11 00:21:37;;;;;;;15.85;10.40;;;;;;;;;;1492883;39;20027;-63
2021/06/11 00:22:40;;;;;;;11.60;9.18;;;;;;;;;;1492824;39;20034;-63
2021/06/11 00:23:41;;;;;;;15.57;9.48;;;;;;;;;;1492840;39;20032;-61
2021/06/11 00:24:42;;;;;;;12.10;9.27;;;;;;;;;;1492911;39;20109;-61
2021/06/11 00:25:43;;;;;;;15.02;9.88;;;;;;;;;;1492983;39;20031;-61
2021/06/11 00:26:44;;;;;;;15.43;9.98;;;;;;;;;;1492822;39;20060;-62
2021/06/11 00:27:45;;;;;;;16.25;9.80;;;;;;;;;;1492839;39;20030;-62
2021/06/11 00:28:47;;;;;;;15.82;10.27;;;;;;;;;;1492769;39;20384;-62
2021/06/11 00:29:48;;;;;;;13.88;10.05;;;;;;;;;;1492973;39;20038;-63
2021/06/11 00:30:49;;;;;;;14.50;9.38;;;;;;;;;;1492817;39;20299;-61
2021/06/11 00:31:50;;;;;;;12.30;9.18;;;;;;;;;;1492743;39;20028;-61
2021/06/11 00:32:52;;;;;;;17.23;10.07;;;;;;;;;;1493093;39;20035;-61
2021/06/11 00:33:52;;;;;;;12.98;9.90;;;;;;;;;;1492791;39;20039;-62
2021/06/11 00:34:54;;;;;;;14.40;10.02;;;;;;;;;;1492965;39;20032;-62
2021/06/11 00:35:55;;;;;;;13.20;9.65;;;;;;;;;;1492793;39;20391;-63
2021/06/11 00:36:56;;;;;;;14.20;9.13;;;;;;;;;;1492799;39;20031;-61
2021/06/11 00:37:58;;;;;;;15.73;10.30;;;;;;;;;;1493016;39;20065;-63
2021/06/11 00:39:00;;;;;;;14.20;9.77;;;;;;;;;;1492762;39;20055;-62
2021/06/11 00:40:01;;;;;;;15.77;9.80;;;;;;;;;;1492891;39;20372;-61
2021/06/11 00:41:02;;;;;;;19.42;10.02;;;;;;;;;;1492733;39;20101;-62
2021/06/11 00:42:04;;;;;;;15.43;9.35;;;;;;;;;;1492786;39;20406;-62
2021/06/11 00:43:11;;;;;;;13.63;9.68;;;;;;;;;;1492912;39;20036;-61
2021/06/11 00:44:12;;;;;;;15.15;9.43;;;;;;;;;;1492805;39;20132;-61
2021/06/11 00:45:14;;;;;;;16.02;9.70;;;;;;;;;;1492962;39;20142;-61
2021/06/11 00:46:15;;;;;;;16.48;10.52;;;;;;;;;;1492759;39;20319;-63
2021/06/11 00:47:16;;;;;;;15.35;10.65;;;;;;;;;;1492857;39;20028;-62
2021/06/11 00:48:18;;;;;;;16.83;10.85;;;;;;;;;;1492902;39;20023;-61
2021/06/11 00:49:19;;;;;;;17.10;10.50;;;;;;;;;;1492931;39;20031;-61
2021/06/11 00:50:23;;;;;;;21.60;10.38;;;;;;;;;;1492931;39;20034;-63
2021/06/11 00:51:25;;;;;;;17.17;9.98;;;;;;;;;;1492793;39;20032;-63
2021/06/11 00:52:26;;;;;;;16.48;9.93;;;;;;;;;;1492722;39;20039;-61
2021/06/11 00:53:29;;;;;;;13.43;9.43;;;;;;;;;;1492726;39;20038;-61
2021/06/11 00:54:30;;;;;;;15.75;10.60;;;;;;;;;;1492713;39;20335;-63
2021/06/11 00:55:32;;;;;;;17.98;10.07;;;;;;;;;;1492878;39;20036;-62
2021/06/11 00:56:32;;;;;;;14.80;10.40;;;;;;;;;;1492913;39;20039;-61
2021/06/11 00:57:34;;;;;;;13.52;10.07;;;;;;;;;;1492816;39;20280;-61
2021/06/11 00:58:35;;;;;;;14.18;9.70;;;;;;;;;;1492812;39;20036;-62
2021/06/11 00:59:40;;;;;;;16.75;10.10;;;;;;;;;;1492880;39;20380;-61
2021/06/11 01:00:41;;;;;;;17.35;10.23;;;;;;;;;;1492790;39;20024;-61
2021/06/11 01:01:42;;;;;;;14.07;9.70;;;;;;;;;;1492935;39;20089;-62
2021/06/11 01:02:43;;;;;;;16.38;10.02;;;;;;;;;;1492821;39;20035;-63
2021/06/11 01:03:45;;;;;;;15.32;10.80;;;;;;;;;;1492706;39;20379;-61
2021/06/11 01:04:45;;;;;;;13.38;10.07;;;;;;;;;;1492662;39;20035;-61
2021/06/11 01:05:47;;;;;;;16.02;11.13;;;;;;;;;;1492716;39;20419;-63
2021/06/11 01:06:49;;;;;;;16.30;11.25;;;;;;;;;;1492682;39;20109;-61
2021/06/11 01:07:52;;;;;;;17.95;10.93;;;;;;;;;;1492660;39;20028;-61
2021/06/11 01:08:56;;;;;;;15.95;11.02;;;;;;;;;;1492629;39;20043;-61
2021/06/11 01:09:57;;;;;;;18.75;11.65;;;;;;;;;;1492723;39;20028;-62
2021/06/11 01:10:59;;;;;;;23.33;12.38;;;;;;;;;;1492677;39;20023;-61
2021/06/11 01:12:01;;;;;;;16.48;10.75;;;;;;;;;;1492675;39;20024;-62
2021/06/11 01:13:02;;;;;;;17.45;11.18;;;;;;;;;;1492675;39;20169;-61
2021/06/11 01:14:05;;;;;;;17.27;10.95;;;;;;;;;;1492610;39;20338;-61
2021/06/11 01:15:07;;;;;;;17.65;10.85;;;;;;;;;;1492688;39;20035;-61
2021/06/11 01:16:09;;;;;;;16.58;10.02;;;;;;;;;;1492837;39;20028;-61
2021/06/11 01:17:11;;;;;;;15.48;10.27;;;;;;;;;;1492837;39;20031;-61
2021/06/11 01:18:13;;;;;;;13.88;9.73;;;;;;;;;;1492751;39;20065;-63
2021/06/11 01:19:14;;;;;;;14.90;10.13;;;;;;;;;;1492659;39;20039;-61
2021/06/11 01:20:16;;;;;;;13.98;9.98;;;;;;;;;;1492789;39;20032;-62
2021/06/11 01:21:18;;;;;;;15.05;9.98;;;;;;;;;;1492555;39;20298;-61
2021/06/11 01:22:31;;;;;;;12.18;9.50;;;;;;;;;;1492892;39;20032;-62
2021/06/11 01:23:50;;;;;;;16.83;10.48;;;;;;;;;;1492651;39;20067;-62
2021/06/11 01:25:00;;;;;;;17.33;10.20;;;;;;;;;;1492712;39;20039;-61
2021/06/11 01:26:18;;;;;;;14.32;9.95;;;;;;;;;;1492719;39;20063;-62
2021/06/11 01:27:21;;;;;;;21.65;11.25;;;;;;;;;;1492706;39;20031;-62
2021/06/11 01:28:23;;;;;;;14.75;10.75;;;;;;;;;;1492768;39;20054;-62
2021/06/11 01:29:26;;;;;;;17.35;10.65;;;;;;;;;;1492677;39;20040;-62
2021/06/11 01:30:29;;;;;;;13.68;10.75;;;;;;;;;;1492586;39;20023;-60
2021/06/11 01:31:32;;;;;;;17.35;11.73;;;;;;;;;;1492630;39;20280;-62
2021/06/11 01:32:34;;;;;;;18.15;10.88;;;;;;;;;;1492757;39;20036;-62
2021/06/11 01:33:37;;;;;;;14.52;10.85;;;;;;;;;;1492586;39;20028;-62
2021/06/11 01:34:40;;;;;;;15.77;10.98;;;;;;;;;;1492829;39;20031;-61
2021/06/11 01:35:46;;;;;;;12.20;9.88;;;;;;;;;;1492783;39;20064;-63
2021/06/11 01:36:50;;;;;;;16.02;10.52;;;;;;;;;;1492240;39;20040;-62
2021/06/11 01:37:56;;;;;;;15.90;10.43;;;;;;;;;;1492343;39;20067;-62
2021/06/11 01:39:00;;;;;;;16.50;10.77;;;;;;;;;;1492552;39;20043;-62
2021/06/11 01:40:05;;;;;;;13.85;10.63;;;;;;;;;;1492591;39;20027;-62
2021/06/11 01:41:08;;;;;;;14.80;10.63;;;;;;;;;;1492584;39;20414;-61
2021/06/11 01:42:12;;;;;;;14.68;9.82;;;;;;;;;;1492566;39;20028;-62
2021/06/11 01:43:15;;;;;;;13.15;9.57;;;;;;;;;;1492765;39;20031;-62
2021/06/11 01:44:17;;;;;;;13.93;10.00;;;;;;;;;;1493398;39;20058;-62
2021/06/11 01:45:18;;;;;;;15.57;10.43;;;;;;;;;;1493196;39;20391;-61
2021/06/11 01:46:23;;;;;;;14.30;10.38;;;;;;;;;;1493198;39;20484;-62
2021/06/11 01:47:24;;;;;;;16.98;10.77;;;;;;;;;;1493377;39;20086;-62
2021/06/11 01:48:28;;;;;;;15.32;11.00;;;;;;;;;;1493153;39;20028;-61
2021/06/11 01:49:30;;;;;;;14.30;10.90;;;;;;;;;;1493245;39;20031;-62
2021/06/11 01:50:33;;;;;;;16.67;10.60;;;;;;;;;;1493400;39;20032;-62
2021/06/11 01:51:36;;;;;;;16.60;10.07;;;;;;;;;;1493207;39;20058;-61
2021/06/11 01:52:38;;;;;;;18.08;11.05;;;;;;;;;;1493350;39;20111;-62
2021/06/11 01:53:41;;;;;;;14.68;10.65;;;;;;;;;;1493383;39;20108;-63
2021/06/11 01:54:44;;;;;;;14.07;9.82;;;;;;;;;;1493160;39;20276;-63
2021/06/11 01:55:47;;;;;;;14.57;10.25;;;;;;;;;;1493177;39;20024;-62
2021/06/11 01:56:49;;;;;;;15.73;10.00;;;;;;;;;;1493412;39;20032;-63
2021/06/11 01:57:53;;;;;;;14.15;9.50;;;;;;;;;;1493233;39;20050;-62
2021/06/11 01:58:55;;;;;;;15.85;10.38;;;;;;;;;;1493304;39;20032;-62
2021/06/11 01:59:57;;;;;;;15.75;10.07;;;;;;;;;;1493181;39;20036;-63
2021/06/11 02:00:59;;;;;;;14.05;10.10;;;;;;;;;;1493263;39;20031;-62
2021/06/11 02:02:02;;;;;;;15.20;10.98;;;;;;;;;;1493210;39;20055;-62
2021/06/11 02:03:03;;;;;;;17.52;10.10;;;;;;;;;;1493322;39;20074;-63
2021/06/11 02:04:06;;;;;;;12.82;9.20;;;;;;;;;;1493142;39;20357;-62
2021/06/11 02:05:09;;;;;;;17.55;11.63;;;;;;;;;;1493293;39;20064;-62
2021/06/11 02:06:11;;;;;;;14.82;10.95;;;;;;;;;;1493150;39;20039;-62
2021/06/11 02:07:14;;;;;;;20.45;11.88;;;;;;;;;;1493422;39;20032;-63
2021/06/11 02:08:16;;;;;;;16.73;11.43;;;;;;;;;;1492577;39;20028;-62
2021/06/11 02:09:19;;;;;;;19.13;12.00;;;;;;;;;;1492911;39;20027;-61
2021/06/11 02:10:22;;;;;;;16.83;11.93;;;;;;;;;;1493124;39;20295;-62
2021/06/11 02:11:24;;;;;;;18.15;11.38;;;;;;;;;;1493315;39;20115;-62
2021/06/11 02:12:25;;;;;;;25.52;12.30;;;;;;;;;;1493321;39;20028;-62
2021/06/11 02:13:29;;;;;;;19.23;11.95;;;;;;;;;;1493295;39;20028;-62
2021/06/11 02:14:30;;;;;;;14.23;10.32;;;;;;;;;;1493157;39;20087;-62
2021/06/11 02:15:32;;;;;;;15.88;10.35;;;;;;;;;;1493204;39;20043;-62
2021/06/11 02:16:33;;;;;;;14.68;10.48;;;;;;;;;;1493299;39;20064;-62
2021/06/11 02:17:39;;;;;;;14.55;10.48;;;;;;;;;;1493211;39;20295;-62
2021/06/11 02:18:41;;;;;;;13.60;10.00;;;;;;;;;;1493208;39;20051;-61
2021/06/11 02:19:44;;;;;;;17.42;9.73;;;;;;;;;;1493311;39;20039;-62
2021/06/11 02:20:45;;;;;;;15.35;9.85;;;;;;;;;;1492598;39;20019;-63
2021/06/11 02:21:46;;;;;;;17.85;10.48;;;;;;;;;;1492754;39;20460;-62
2021/06/11 02:22:47;;;;;;;12.75;9.23;;;;;;;;;;1493229;39;20031;-62
2021/06/11 02:23:49;;;;;;;15.43;9.50;;;;;;;;;;1493103;39;20024;-63
2021/06/11 02:24:50;;;;;;;12.90;9.65;;;;;;;;;;1493106;39;20027;-62
2021/06/11 02:25:51;;;;;;;14.52;9.85;;;;;;;;;;1493112;39;20024;-62
2021/06/11 02:26:53;;;;;;;14.75;10.13;;;;;;;;;;1493124;39;20032;-62
2021/06/11 02:27:56;;;;;;;15.63;10.32;;;;;;;;;;1493108;39;20027;-61
2021/06/11 02:28:58;;;;;;;16.30;11.50;;;;;;;;;;1493008;39;20039;-61
2021/06/11 02:30:00;;;;;;;16.70;10.95;;;;;;;;;;1493465;39;20031;-62
2021/06/11 02:31:02;;;;;;;13.82;10.82;;;;;;;;;;1493114;39;20035;-61
2021/06/11 02:32:05;;;;;;;16.00;10.48;;;;;;;;;;1493112;39;20383;-62
2021/06/11 02:33:07;;;;;;;14.57;10.52;;;;;;;;;;1492799;39;20027;-61
2021/06/11 02:34:08;;;;;;;16.30;10.57;;;;;;;;;;1492694;39;20276;-62
2021/06/11 02:35:12;;;;;;;15.07;10.18;;;;;;;;;;1493295;39;20040;-63
2021/06/11 02:36:14;;;;;;;15.60;10.73;;;;;;;;;;1493265;39;20125;-62
2021/06/11 02:37:15;;;;;;;14.75;10.48;;;;;;;;;;1493191;39;20044;-61
2021/06/11 02:38:16;;;;;;;13.77;9.68;;;;;;;;;;1493041;39;20023;-61
2021/06/11 02:39:17;;;;;;;17.77;11.65;;;;;;;;;;1493115;39;20035;-63
2021/06/11 02:40:18;;;;;;;19.70;11.00;;;;;;;;;;1493228;39;20032;-62
2021/06/11 02:41:23;;;;;;;15.13;9.88;;;;;;;;;;1493245;39;20024;-63
2021/06/11 02:42:28;;;;;;;14.57;10.85;;;;;;;;;;1493375;39;20317;-61
2021/06/11 02:43:32;;;;;;;15.55;10.48;;;;;;;;;;1493265;39;20031;-63
2021/06/11 02:44:40;;;;;;;15.70;10.77;;;;;;;;;;1493208;39;20032;-61
2021/06/11 02:45:49;;;;;;;13.88;9.82;;;;;;;;;;1493141;39;20035;-62
2021/06/11 02:46:55;;;;;;;14.93;10.13;;;;;;;;;;1492781;39;20039;-62
2021/06/11 02:48:06;;;;;;;14.13;10.73;;;;;;;;;;1492643;39;20024;-62
2021/06/11 02:49:14;;;;;;;15.77;10.20;;;;;;;;;;1493020;39;20116;-62
2021/06/11 02:50:19;;;;;;;13.27;10.13;;;;;;;;;;1493094;39;20032;-61
2021/06/11 02:51:27;;;;;;;14.95;10.52;;;;;;;;;;1493238;39;20121;-62
2021/06/11 02:52:29;;;;;;;16.63;9.85;;;;;;;;;;1493142;39;20024;-63
2021/06/11 02:53:32;;;;;;;17.50;10.23;;;;;;;;;;1493168;39;20032;-62
2021/06/11 02:54:39;;;;;;;13.57;9.85;;;;;;;;;;1492927;39;20410;-63
2021/06/11 02:55:42;;;;;;;15.02;9.75;;;;;;;;;;1493223;39;20031;-62
2021/06/11 02:56:46;;;;;;;20.75;10.38;;;;;;;;;;1493186;39;20024;-61
2021/06/11 02:57:51;;;;;;;15.50;10.13;;;;;;;;;;1493029;39;20438;-63
2021/06/11 02:58:56;;;;;;;17.45;10.48;;;;;;;;;;1493144;39;20031;-62
2021/06/11 03:00:06;;;;;;;14.50;10.02;;;;;;;;;;1493136;39;20109;-63
2021/06/11 03:01:07;;;;;;;13.57;9.23;;;;;;;;;;1493152;39;20046;-63
2021/06/11 03:02:11;;;;;;;13.65;9.77;;;;;;;;;;1493027;39;20036;-61
2021/06/11 03:03:17;;;;;;;18.23;9.95;;;;;;;;;;1493037;39;20094;-61
2021/06/11 03:04:19;;;;;;;14.40;9.25;;;;;;;;;;1493089;39;20448;-62
2021/06/11 03:05:23;;;;;;;14.05;9.82;;;;;;;;;;1493204;39;20024;-62
2021/06/11 03:06:25;;;;;;;14.48;9.90;;;;;;;;;;1492996;39;20061;-61
2021/06/11 03:07:28;;;;;;;13.05;10.15;;;;;;;;;;1493205;39;20032;-63
2021/06/11 03:08:34;;;;;;;17.92;10.73;;;;;;;;;;1492911;39;20295;-61
2021/06/11 03:09:38;;;;;;;13.85;9.80;;;;;;;;;;1493224;39;20034;-63
2021/06/11 03:10:44;;;;;;;18.13;10.27;;;;;;;;;;1493143;39;20039;-62
2021/06/11 03:11:46;;;;;;;15.25;9.98;;;;;;;;;;1492998;39;20112;-62
2021/06/11 03:12:48;;;;;;;14.63;9.82;;;;;;;;;;1493205;39;20052;-61
2021/06/11 03:13:51;;;;;;;15.25;10.40;;;;;;;;;;1493013;39;20035;-63
2021/06/11 03:14:54;;;;;;;13.02;9.52;;;;;;;;;;1493001;39;20093;-62
2021/06/11 03:15:58;;;;;;;13.57;9.48;;;;;;;;;;1493019;39;20028;-62
2021/06/11 03:17:01;;;;;;;13.07;9.75;;;;;;;;;;1492987;39;20100;-62
2021/06/11 03:18:05;;;;;;;13.43;9.73;;;;;;;;;;1493205;39;20076;-62
2021/06/11 03:19:10;;;;;;;15.40;9.52;;;;;;;;;;1493104;39;20371;-62
2021/06/11 03:20:14;;;;;;;15.40;9.13;;;;;;;;;;1492981;39;20032;-63
2021/06/11 03:21:18;;;;;;;13.85;9.35;;;;;;;;;;1493089;39;20071;-62
2021/06/11 03:22:24;;;;;;;13.52;9.88;;;;;;;;;;1493150;39;20036;-62
2021/06/11 03:23:29;;;;;;;14.55;9.80;;;;;;;;;;1493242;39;20039;-62
2021/06/11 03:24:36;;;;;;;13.18;9.45;;;;;;;;;;1493145;39;20043;-63
2021/06/11 03:25:43;;;;;;;13.73;10.02;;;;;;;;;;1492974;39;20038;-62
2021/06/11 03:26:48;;;;;;;14.93;9.32;;;;;;;;;;1493166;39;20027;-62
2021/06/11 03:27:53;;;;;;;12.93;9.60;;;;;;;;;;1493012;39;20039;-63
2021/06/11 03:28:57;;;;;;;13.68;9.63;;;;;;;;;;1493093;39;20040;-63
2021/06/11 03:30:05;;;;;;;17.40;10.52;;;;;;;;;;1492986;39;20034;-63
2021/06/11 03:31:10;;;;;;;15.55;9.48;;;;;;;;;;1493183;39;20039;-62
2021/06/11 03:32:17;;;;;;;13.85;9.40;;;;;;;;;;1493306;39;20032;-62
2021/06/11 03:33:21;;;;;;;15.38;9.65;;;;;;;;;;1492999;39;20064;-63
2021/06/11 03:34:24;;;;;;;15.88;10.45;;;;;;;;;;1492971;39;20332;-63
2021/06/11 03:35:31;;;;;;;15.15;9.85;;;;;;;;;;1492915;39;20027;-62
2021/06/11 03:36:38;;;;;;;15.57;10.90;;;;;;;;;;1493233;39;20034;-63
2021/06/11 03:37:39;;;;;;;16.02;10.38;;;;;;;;;;1492975;39;20031;-62
2021/06/11 03:38:46;;;;;;;14.25;10.70;;;;;;;;;;1493140;39;20038;-61
2021/06/11 03:39:50;;;;;;;14.63;9.90;;;;;;;;;;1492963;39;20028;-62
2021/06/11 03:40:52;;;;;;;14.95;9.68;;;;;;;;;;1492880;39;20391;-62
2021/06/11 03:41:53;;;;;;;16.17;10.25;;;;;;;;;;1492896;39;20028;-61
2021/06/11 03:42:56;;;;;;;12.65;10.10;;;;;;;;;;1493099;39;20109;-63
2021/06/11 03:43:57;;;;;;;15.18;10.18;;;;;;;;;;1492948;39;20411;-62
2021/06/11 03:45:01;;;;;;;16.25;10.90;;;;;;;;;;1492966;39;20402;-62
2021/06/11 03:46:07;;;;;;;16.75;10.18;;;;;;;;;;1492921;39;20034;-62
2021/06/11 03:47:10;;;;;;;14.60;10.02;;;;;;;;;;1493082;39;20024;-63
2021/06/11 03:48:16;;;;;;;13.07;9.50;;;;;;;;;;1492961;39;20031;-62
2021/06/11 03:49:21;;;;;;;12.77;9.52;;;;;;;;;;1493120;39;20152;-63
2021/06/11 03:50:24;;;;;;;14.15;9.52;;;;;;;;;;1493182;39;20035;-63
2021/06/11 03:51:26;;;;;;;13.38;8.95;;;;;;;;;;1493003;39;20032;-62
2021/06/11 03:52:29;;;;;;;16.58;10.65;;;;;;;;;;1492925;39;20050;-62
2021/06/11 03:53:31;;;;;;;14.45;10.52;;;;;;;;;;1493012;39;20113;-62
2021/06/11 03:54:32;;;;;;;14.80;10.18;;;;;;;;;;1493017;39;20034;-63
2021/06/11 03:55:42;;;;;;;12.73;9.55;;;;;;;;;;1493081;39;20031;-62
2021/06/11 03:56:44;;;;;;;16.52;10.40;;;;;;;;;;1493083;39;20089;-62
2021/06/11 03:57:50;;;;;;;13.85;9.38;;;;;;;;;;1492978;39;20028;-62
2021/06/11 03:58:55;;;;;;;15.13;10.27;;;;;;;;;;1492837;39;20035;-61
2021/06/11 03:59:59;;;;;;;16.80;11.00;;;;;;;;;;1492880;39;20028;-61
2021/06/11 04:01:02;;;;;;;16.17;10.45;;;;;;;;;;1493057;39;20028;-63
2021/06/11 04:02:06;;;;;;;13.25;9.98;;;;;;;;;;1492955;39;20104;-62
2021/06/11 04:03:07;;;;;;;14.90;10.57;;;;;;;;;;1492956;39;20034;-63
2021/06/11 04:04:09;;;;;;;17.20;10.73;;;;;;;;;;1493088;39;20028;-62
2021/06/11 04:05:11;;;;;;;15.00;9.50;;;;;;;;;;1493047;39;20034;-62
2021/06/11 04:06:16;;;;;;;14.25;9.43;;;;;;;;;;1492674;39;20034;-62
2021/06/11 04:07:20;;;;;;;14.48;9.38;;;;;;;;;;1493010;39;20027;-63
2021/06/11 04:08:24;;;;;;;12.75;9.70;;;;;;;;;;1493106;39;20024;-62
2021/06/11 04:09:30;;;;;;;13.27;9.75;;;;;;;;;;1493101;39;20034;-62
2021/06/11 04:10:35;;;;;;;12.75;9.15;;;;;;;;;;1492915;39;20352;-63
2021/06/11 04:11:41;;;;;;;16.48;10.05;;;;;;;;;;1492838;39;20036;-63
2021/06/11 04:12:47;;;;;;;16.05;9.45;;;;;;;;;;1493057;39;20043;-62
2021/06/11 04:13:51;;;;;;;16.45;10.07;;;;;;;;;;1493065;39;20038;-62
2021/06/11 04:14:54;;;;;;;16.20;10.20;;;;;;;;;;1493013;39;20064;-62
2021/06/11 04:15:59;;;;;;;17.02;10.07;;;;;;;;;;1493111;39;20031;-62
2021/06/11 04:17:04;;;;;;;21.58;11.40;;;;;;;;;;1492831;39;20440;-63
2021/06/11 04:18:11;;;;;;;14.23;9.55;;;;;;;;;;1492840;39;20375;-63
2021/06/11 04:19:26;;;;;;;15.73;10.13;;;;;;;;;;1492788;39;20038;-63
2021/06/11 04:20:29;;;;;;;13.40;10.00;;;;;;;;;;1493011;39;20036;-63
2021/06/11 04:21:33;;;;;;;13.25;10.00;;;;;;;;;;1492926;39;20032;-62
2021/06/11 04:22:37;;;;;;;15.85;9.98;;;;;;;;;;1492775;39;20391;-62
2021/06/11 04:23:40;;;;;;;13.77;9.52;;;;;;;;;;1493024;39;20031;-62
2021/06/11 04:24:44;;;;;;;12.90;9.77;;;;;;;;;;1492971;39;20112;-62
2021/06/11 04:25:47;;;;;;;16.88;10.30;;;;;;;;;;1492800;39;20129;-63
2021/06/11 04:26:49;;;;;;;14.43;10.30;;;;;;;;;;1492789;39;20061;-62
2021/06/11 04:27:53;;;;;;;14.32;9.93;;;;;;;;;;1492859;39;20027;-62
2021/06/11 04:28:55;;;;;;;19.45;10.02;;;;;;;;;;1492816;39;20403;-61
2021/06/11 04:29:57;;;;;;;16.17;9.80;;;;;;;;;;1492772;39;20287;-63
2021/06/11 04:30:58;;;;;;;20.15;9.88;;;;;;;;;;1492982;39;20043;-62
2021/06/11 04:31:59;;;;;;;13.15;9.57;;;;;;;;;;1492983;39;20035;-63
2021/06/11 04:33:00;;;;;;;12.23;9.57;;;;;;;;;;1492987;39;20024;-63
2021/06/11 04:34:03;;;;;;;14.32;9.98;;;;;;;;;;1492968;39;20034;-63
2021/06/11 04:35:06;;;;;;;13.82;10.25;;;;;;;;;;1493007;39;20032;-62
2021/06/11 04:36:08;;;;;;;13.52;10.00;;;;;;;;;;1492824;39;20036;-62
2021/06/11 04:37:09;;;;;;;12.68;9.10;;;;;;;;;;1492976;39;20028;-62
2021/06/11 04:38:10;;;;;;;16.00;9.43;;;;;;;;;;1493003;39;20024;-63
2021/06/11 04:39:13;;;;;;;14.00;9.63;;;;;;;;;;1492730;39;20039;-62
2021/06/11 04:40:14;;;;;;;15.48;9.52;;;;;;;;;;1492782;39;20318;-62
2021/06/11 04:41:16;;;;;;;16.02;11.80;;;;;;;;;;1492932;39;20043;-61
2021/06/11 04:42:17;;;;;;;16.38;9.75;;;;;;;;;;1492773;39;20032;-62
2021/06/11 04:43:23;;;;;;;17.17;10.27;;;;;;;;;;1492984;39;20024;-63
2021/06/11 04:44:24;;;;;;;17.73;10.15;;;;;;;;;;1492900;39;20279;-62
2021/06/11 04:45:26;;;;;;;12.95;9.25;;;;;;;;;;1492790;39;20031;-63
2021/06/11 04:46:28;;;;;;;13.68;10.02;;;;;;;;;;1492914;39;20039;-63
2021/06/11 04:47:29;;;;;;;18.38;10.38;;;;;;;;;;1492962;39;20109;-63
2021/06/11 04:48:30;;;;;;;14.43;9.65;;;;;;;;;;1492700;39;20047;-62
2021/06/11 04:49:33;;;;;;;15.50;10.50;;;;;;;;;;1492933;39;20036;-62
2021/06/11 04:50:34;;;;;;;15.68;10.65;;;;;;;;;;1492745;39;20040;-63
2021/06/11 04:51:36;;;;;;;15.77;9.80;;;;;;;;;;1492917;39;20031;-62
2021/06/11 04:52:36;;;;;;;14.27;10.02;;;;;;;;;;1492936;39;20028;-63
2021/06/11 04:53:38;;;;;;;13.60;9.77;;;;;;;;;;1492914;39;20031;-62
2021/06/11 04:54:39;;;;;;;15.18;10.48;;;;;;;;;;1492770;39;20298;-62
2021/06/11 04:55:40;;;;;;;17.55;11.32;;;;;;;;;;1492800;39;20031;-63
2021/06/11 04:56:41;;;;;;;15.02;10.30;;;;;;;;;;1492879;39;20031;-62
2021/06/11 04:57:42;;;;;;;17.25;11.27;;;;;;;;;;1492816;39;20039;-62
2021/06/11 04:58:43;;;;;;;18.10;12.52;;;;;;;;;;1492812;39;20042;-62
2021/06/11 04:59:45;;;;;;;16.90;11.77;;;;;;;;;;1492688;39;20028;-62
2021/06/11 05:00:46;;;;;;;16.42;11.60;;;;;;;;;;1492715;39;20391;-63
2021/06/11 05:01:48;;;;;;;16.75;11.07;;;;;;;;;;1492625;39;20032;-63
2021/06/11 05:02:49;;;;;;;15.02;11.40;;;;;;;;;;1492836;39;20031;-63
2021/06/11 05:03:50;;;;;;;18.92;11.88;;;;;;;;;;1492817;39;20058;-63
2021/06/11 05:04:52;;;;;;;18.88;12.18;;;;;;;;;;1492924;39;20032;-62
2021/06/11 05:05:54;;;;;;;19.15;12.77;;;;;;;;;;1492705;39;20024;-63
2021/06/11 05:06:54;;;;;;;16.83;11.68;;;;;;;;;;1492831;39;20024;-62
2021/06/11 05:07:56;;;;;;;15.70;11.68;;;;;;;;;;1492891;39;20040;-63
2021/06/11 05:08:57;;;;;;;18.08;12.10;;;;;;;;;;1492807;39;20116;-62
2021/06/11 05:09:58;;;;;;;18.10;12.07;;;;;;;;;;1492670;39;20035;-63
2021/06/11 05:11:00;;;;;;;15.38;11.10;;;;;;;;;;1492669;39;20027;-63
2021/06/11 05:12:02;;;;;;;16.75;11.60;;;;;;;;;;1492673;39;20039;-63
2021/06/11 05:13:03;;;;;;;17.30;11.70;;;;;;;;;;1492865;39;20031;-63
2021/06/11 05:14:05;;;;;;;17.23;11.10;;;;;;;;;;1492656;39;20027;-62
2021/06/11 05:15:07;;;;;;;16.55;12.45;;;;;;;;;;1492862;39;20040;-63
2021/06/11 05:16:08;;;;;;;18.35;12.48;;;;;;;;;;1492831;39;20044;-63
2021/06/11 05:17:10;;;;;;;14.23;10.63;;;;;;;;;;1492693;39;20384;-63
2021/06/11 05:18:11;;;;;;;14.93;10.77;;;;;;;;;;1492567;39;20113;-64
2021/06/11 05:19:13;;;;;;;17.25;11.98;;;;;;;;;;1493403;39;20116;-63
2021/06/11 05:20:16;;;;;;;15.93;11.77;;;;;;;;;;1493250;39;20322;-63
2021/06/11 05:21:17;;;;;;;19.17;11.93;;;;;;;;;;1493260;39;20068;-63
2021/06/11 05:22:19;;;;;;;16.50;10.95;;;;;;;;;;1493253;39;20030;-63
2021/06/11 05:23:20;;;;;;;16.17;11.40;;;;;;;;;;1493503;39;20039;-62
2021/06/11 05:24:21;;;;;;;16.00;11.35;;;;;;;;;;1493524;39;20024;-63
2021/06/11 05:25:22;;;;;;;19.85;13.05;;;;;;;;;;1493443;39;20035;-63
2021/06/11 05:26:23;;;;;;;16.63;11.95;;;;;;;;;;1493431;39;20031;-63
2021/06/11 05:27:24;;;;;;;15.57;11.60;;;;;;;;;;1493262;39;20051;-63
2021/06/11 05:28:25;;;;;;;15.77;11.55;;;;;;;;;;1493197;39;20295;-62
2021/06/11 05:29:27;;;;;;;17.95;11.75;;;;;;;;;;1493463;39;20032;-63
2021/06/11 05:30:28;;;;;;;17.88;11.48;;;;;;;;;;1493438;39;20030;-63
2021/06/11 05:31:29;;;;;;;16.15;11.43;;;;;;;;;;1493343;39;20132;-62
2021/06/11 05:32:30;;;;;;;16.90;11.00;;;;;;;;;;1493256;39;20028;-63
2021/06/11 05:33:31;;;;;;;16.63;11.35;;;;;;;;;;1493673;39;20023;-60
2021/06/11 05:34:32;;;;;;;16.10;11.25;;;;;;;;;;1493249;39;20034;-58
2021/06/11 05:35:35;;;;;;;14.95;10.93;;;;;;;;;;1493468;39;20030;-58
2021/06/11 05:36:36;;;;;;;15.07;11.27;;;;;;;;;;1493494;39;20028;-58
2021/06/11 05:37:37;;;;;;;16.75;11.38;;;;;;;;;;1493283;39;20421;-58
2021/06/11 05:38:38;;;;;;;14.85;11.02;;;;;;;;;;1493172;39;20484;-58
2021/06/11 05:39:39;;;;;;;15.57;11.23;;;;;;;;;;1493434;39;20089;-58
2021/06/11 05:40:41;;;;;;;14.38;10.60;;;;;;;;;;1493269;39;20311;-58
2021/06/11 05:41:42;;;;;;;15.80;10.88;;;;;;;;;;1493233;39;20068;-58
2021/06/11 05:42:43;;;;;;;15.68;10.60;;;;;;;;;;1493264;39;20039;-58
2021/06/11 05:43:45;;;;;;;14.60;10.60;;;;;;;;;;1493350;39;20024;-58
2021/06/11 05:44:45;;;;;;;14.48;10.45;;;;;;;;;;1493239;39;20151;-58
2021/06/11 05:45:47;;;;;;;14.40;10.80;;;;;;;;;;1492887;39;20032;-58
2021/06/11 05:46:48;;;;;;;15.68;11.10;;;;;;;;;;1492878;39;20024;-58
2021/06/11 05:47:49;;;;;;;13.50;10.45;;;;;;;;;;1493237;39;20028;-58
2021/06/11 05:48:50;;;;;;;16.55;11.27;;;;;;;;;;1493376;39;20044;-58
2021/06/11 05:49:51;;;;;;;16.15;11.00;;;;;;;;;;1493445;39;20135;-58
2021/06/11 05:50:54;;;;;;;13.98;11.00;;;;;;;;;;1493188;39;20399;-58
2021/06/11 05:51:55;;;;;;;17.40;11.52;;;;;;;;;;1493198;39;20399;-60
2021/06/11 05:52:56;;;;;;;15.50;11.70;;;;;;;;;;1493372;39;20032;-59
2021/06/11 05:53:58;;;;;;;15.52;10.57;;;;;;;;;;1493496;39;20036;-59
2021/06/11 05:54:59;;;;;;;14.85;10.98;;;;;;;;;;1493326;39;20043;-59
2021/06/11 05:56:01;;;;;;;15.63;11.15;;;;;;;;;;1493338;39;20031;-59
2021/06/11 05:57:03;;;;;;;16.25;11.32;;;;;;;;;;1493229;39;20031;-59
2021/06/11 05:58:04;;;;;;;15.40;11.30;;;;;;;;;;1493195;39;20112;-61
2021/06/11 05:59:05;;;;;;;13.90;10.85;;;;;;;;;;1493392;39;20042;-59
2021/06/11 06:00:07;;;;;;;15.32;10.68;;;;;;;;;;1493286;39;20032;-61
2021/06/11 06:01:09;;;;;;;13.68;10.73;;;;;;;;;;1493079;39;20287;-59
2021/06/11 06:02:10;;;;;;;17.17;11.00;;;;;;;;;;1493380;39;20035;-59
2021/06/11 06:03:11;;;;;;;15.13;10.95;;;;;;;;;;1493348;39;20028;-59
2021/06/11 06:04:12;;;;;;;14.88;10.48;;;;;;;;;;1493204;39;20299;-59
2021/06/11 06:05:14;;;;;;;14.95;11.27;;;;;;;;;;1493195;39;20028;-59
2021/06/11 06:06:17;;;;;;;18.50;11.18;;;;;;;;;;1493220;39;20031;-59